Time;durP1;ratioP1;P1;durP2;ratioP2;P2;SDS_P1;SDS_P2;PMS_P1;PMS_P2;Temp;Humidity;BMP_temperature;BMP_pressure;BME280_temperature;BME280_humidity;BME280_pressure;Samples;Min_cycle;Max_cycle;Signal;HPM_P1;HPM_P2
2022/07/17 00:04:31;;;;;;;4.43;1.83;;;17.90;62.40;;;;;;10454310;28;20759;-71
2022/07/17 00:09:32;;;;;;;3.43;2.30;;;17.70;63.20;;;;;;10443016;28;20227;-69
2022/07/17 00:14:33;;;;;;;7.23;2.30;;;17.60;63.60;;;;;;10434862;28;20879;-70
2022/07/17 00:19:34;;;;;;;4.87;2.30;;;17.50;64.10;;;;;;10449359;28;20225;-70
2022/07/17 00:24:34;;;;;;;5.53;2.10;;;17.50;64.20;;;;;;10434435;28;20432;-69
2022/07/17 00:29:35;;;;;;;3.57;1.80;;;17.40;64.20;;;;;;10443293;28;20230;-72
2022/07/17 00:34:35;;;;;;;5.03;1.90;;;17.30;64.40;;;;;;10438873;28;20598;-68
2022/07/17 00:39:36;;;;;;;3.07;1.60;;;17.30;64.40;;;;;;10443752;28;20230;-69
2022/07/17 00:44:37;;;;;;;5.97;1.80;;;17.20;64.70;;;;;;10441005;28;20231;-70
2022/07/17 00:49:37;;;;;;;2.50;1.53;;;17.10;65.00;;;;;;10437262;28;20634;-69
2022/07/17 00:54:43;;;;;;;3.37;1.80;;;16.90;65.70;;;;;;10427796;28;20306;-68
2022/07/17 00:59:43;;;;;;;3.70;1.63;;;16.90;66.10;;;;;;10447066;28;20237;-69
2022/07/17 01:04:44;;;;;;;3.10;1.50;;;16.90;66.00;;;;;;10434579;28;20751;-70
2022/07/17 01:09:44;;;;;;;10.00;2.07;;;16.80;66.20;;;;;;10440154;28;20496;-69
2022/07/17 01:14:46;;;;;;;5.57;2.00;;;16.80;66.80;;;;;;10434126;28;20276;-69
2022/07/17 01:19:46;;;;;;;6.17;2.97;;;16.60;67.70;;;;;;10438302;28;20227;-70
2022/07/17 01:24:47;;;;;;;6.13;3.20;;;16.60;68.50;;;;;;10443901;28;20219;-70
2022/07/17 01:29:47;;;;;;;5.60;2.27;;;16.50;68.50;;;;;;10433006;28;20657;-70
2022/07/17 01:34:51;;;;;;;3.50;1.83;;;16.40;68.60;;;;;;10436376;28;20753;-70
2022/07/17 01:39:54;;;;;;;3.20;1.50;;;16.30;68.70;;;;;;10448907;28;20277;-69
2022/07/17 01:44:58;;;;;;;3.87;1.53;;;16.30;68.80;;;;;;10431897;28;20232;-68
2022/07/17 01:49:59;;;;;;;5.63;1.77;;;16.30;68.50;;;;;;10443634;28;20231;-70
2022/07/17 01:54:59;;;;;;;5.60;1.87;;;16.30;68.70;;;;;;10438602;28;20231;-69
2022/07/17 02:00:00;;;;;;;5.83;1.60;;;16.30;68.60;;;;;;10430976;28;20232;-71
2022/07/17 02:05:01;;;;;;;3.87;1.50;;;16.30;68.70;;;;;;10445773;28;20565;-70
2022/07/17 02:10:07;;;;;;;3.07;1.53;;;16.20;68.60;;;;;;10426611;28;20877;-70
2022/07/17 02:15:08;;;;;;;5.17;1.60;;;16.20;68.80;;;;;;10446278;28;20223;-70
2022/07/17 02:20:10;;;;;;;3.40;1.33;;;16.10;69.10;;;;;;10436160;28;20218;-69
2022/07/17 02:25:11;;;;;;;2.27;1.20;;;16.00;69.30;;;;;;10436968;28;20643;-69
2022/07/17 02:30:16;;;;;;;2.77;1.50;;;16.00;69.70;;;;;;10430764;28;20187;-70
2022/07/17 02:35:18;;;;;;;4.53;1.73;;;15.90;70.70;;;;;;10442518;28;20553;-70
2022/07/17 02:40:19;;;;;;;5.97;1.70;;;15.90;70.10;;;;;;10427925;28;20214;-70
2022/07/17 02:45:24;;;;;;;8.13;1.57;;;15.90;70.60;;;;;;10439252;28;20191;-71
2022/07/17 02:50:25;;;;;;;3.67;1.43;;;15.80;70.90;;;;;;10426793;28;20232;-70
2022/07/17 02:55:26;;;;;;;1.83;1.60;;;15.80;71.30;;;;;;10426340;28;20215;-70
2022/07/17 03:00:30;;;;;;;4.53;1.40;;;15.70;71.50;;;;;;10433541;28;20679;-69
2022/07/17 03:05:31;;;;;;;4.00;1.53;;;15.60;71.80;;;;;;10438313;28;20212;-70
2022/07/17 03:10:32;;;;;;;4.37;1.67;;;15.60;72.30;;;;;;10438916;28;20589;-69
2022/07/17 03:15:32;;;;;;;3.23;1.80;;;15.50;72.80;;;;;;10435549;28;20207;-70
2022/07/17 03:20:33;;;;;;;2.73;1.60;;;15.40;73.10;;;;;;10431276;28;20215;-69
2022/07/17 03:25:34;;;;;;;6.83;1.73;;;15.30;73.50;;;;;;10431596;28;20318;-69
2022/07/17 03:30:34;;;;;;;5.63;2.30;;;15.30;74.00;;;;;;10431171;28;20219;-70
2022/07/17 03:35:35;;;;;;;4.70;1.67;;;15.20;74.50;;;;;;10430163;28;20220;-69
2022/07/17 03:40:36;;;;;;;3.97;1.93;;;15.10;75.00;;;;;;10429478;28;20224;-70
2022/07/17 03:45:37;;;;;;;4.80;1.77;;;15.00;75.50;;;;;;10440445;28;20245;-69
2022/07/17 03:50:37;;;;;;;5.13;1.90;;;15.00;76.00;;;;;;10431815;28;20220;-69
2022/07/17 03:55:38;;;;;;;5.90;2.03;;;15.00;76.20;;;;;;10443328;28;20754;-70
2022/07/17 04:00:38;;;;;;;5.00;2.20;;;15.00;76.80;;;;;;10443176;28;20677;-70
2022/07/17 04:05:39;;;;;;;4.03;2.20;;;15.10;76.90;;;;;;10456902;28;20306;-69
2022/07/17 04:10:39;;;;;;;5.40;2.13;;;15.10;76.10;;;;;;10443706;28;20680;-69
2022/07/17 04:15:49;;;;;;;4.20;2.17;;;15.20;76.20;;;;;;10429409;28;20259;-68
2022/07/17 04:20:51;;;;;;;4.03;1.97;;;15.30;75.40;;;;;;10450168;28;20252;-69
2022/07/17 04:25:52;;;;;;;4.07;1.80;;;15.40;75.40;;;;;;10434643;28;20655;-69
2022/07/17 04:30:52;;;;;;;4.63;1.90;;;15.40;75.80;;;;;;10451956;28;20239;-69
2022/07/17 04:35:53;;;;;;;3.30;1.90;;;15.40;76.00;;;;;;10438560;28;20691;-70
2022/07/17 04:40:54;;;;;;;2.17;1.50;;;15.50;76.10;;;;;;10434326;28;20220;-69
2022/07/17 04:45:54;;;;;;;5.10;1.90;;;15.50;75.90;;;;;;10449869;28;20702;-71
2022/07/17 04:50:55;;;;;;;2.43;1.40;;;15.60;75.60;;;;;;10446159;28;20737;-70
2022/07/17 04:55:55;;;;;;;3.30;1.77;;;16.90;71.10;;;;;;10434115;28;20247;-70
2022/07/17 05:00:56;;;;;;;4.23;1.97;;;16.80;71.00;;;;;;10441893;28;20604;-69
2022/07/17 05:05:57;;;;;;;2.83;2.10;;;16.60;71.80;;;;;;10448070;28;20227;-70
2022/07/17 05:10:57;;;;;;;10.30;3.17;;;18.30;67.70;;;;;;10442294;28;20219;-70
2022/07/17 05:15:58;;;;;;;8.33;3.00;;;20.30;59.50;;;;;;10444884;28;20240;-70
2022/07/17 05:20:58;;;;;;;4.30;2.40;;;21.00;57.40;;;;;;10446280;28;20215;-70
2022/07/17 05:25:59;;;;;;;5.27;2.30;;;19.30;60.20;;;;;;10456701;28;20229;-69
2022/07/17 05:31:00;;;;;;;2.77;1.87;;;18.20;65.40;;;;;;10433604;28;20254;-69
2022/07/17 05:36:01;;;;;;;6.83;2.27;;;18.10;66.90;;;;;;10434630;28;20318;-69
2022/07/17 05:41:01;;;;;;;6.07;2.63;;;19.70;63.00;;;;;;10439341;28;20221;-70
2022/07/17 05:46:02;;;;;;;3.13;2.30;;;22.10;56.20;;;;;;10425592;28;20231;-69
2022/07/17 05:51:02;;;;;;;6.40;2.57;;;23.50;52.40;;;;;;10442019;28;20309;-69
2022/07/17 05:56:03;;;;;;;4.43;2.47;;;24.20;50.70;;;;;;10440448;28;20235;-70
2022/07/17 06:01:09;;;;;;;5.40;2.37;;;24.80;48.10;;;;;;10434259;28;20219;-69
2022/07/17 06:06:10;;;;;;;6.00;1.80;;;25.80;46.40;;;;;;10443566;28;20234;-70
2022/07/17 06:11:11;;;;;;;5.80;1.60;;;26.00;45.40;;;;;;10432002;28;20880;-70
2022/07/17 06:16:13;;;;;;;4.57;1.87;;;25.90;45.60;;;;;;10432412;28;20741;-69
2022/07/17 06:21:13;;;;;;;5.00;2.60;;;26.30;44.50;;;;;;10441286;28;20247;-70
2022/07/17 06:26:14;;;;;;;7.37;2.67;;;26.20;44.40;;;;;;10437420;28;20249;-69
2022/07/17 06:31:15;;;;;;;5.50;2.00;;;26.70;44.10;;;;;;10422361;28;20258;-70
2022/07/17 06:36:15;;;;;;;4.77;2.07;;;27.40;42.90;;;;;;10435675;28;20235;-69
2022/07/17 06:41:16;;;;;;;3.80;1.80;;;28.00;41.60;;;;;;10440185;28;20217;-71
2022/07/17 06:46:16;;;;;;;8.63;2.07;;;29.20;40.40;;;;;;10432724;28;20598;-72
2022/07/17 06:51:18;;;;;;;2.93;1.60;;;29.40;38.70;;;;;;10443629;28;20230;-69
2022/07/17 06:56:18;;;;;;;2.60;1.40;;;29.40;38.40;;;;;;10437014;28;20752;-69
2022/07/17 07:01:19;;;;;;;3.63;1.70;;;29.80;37.80;;;;;;10430280;28;20215;-70
2022/07/17 07:06:19;;;;;;;3.83;1.33;;;29.50;37.50;;;;;;10434151;28;20386;-69
2022/07/17 07:11:24;;;;;;;5.17;1.57;;;29.10;38.60;;;;;;10435302;28;20601;-70
2022/07/17 07:16:27;;;;;;;3.07;1.43;;;28.80;38.90;;;;;;10440092;28;20274;-68
2022/07/17 07:21:28;;;;;;;5.50;2.30;;;29.10;39.10;;;;;;10445077;28;20975;-69
2022/07/17 07:26:28;;;;;;;4.07;1.67;;;30.00;38.00;;;;;;10445899;28;20227;-70
2022/07/17 07:31:29;;;;;;;3.03;1.60;;;31.00;36.20;;;;;;10445201;28;20319;-70
2022/07/17 07:36:29;;;;;;;4.57;1.40;;;31.90;35.00;;;;;;10443386;28;20740;-69
2022/07/17 07:41:30;;;;;;;3.83;1.63;;;32.10;34.40;;;;;;10449285;28;20228;-69
2022/07/17 07:46:31;;;;;;;4.83;1.67;;;31.30;34.20;;;;;;10436218;28;20220;-70
2022/07/17 07:51:31;;;;;;;3.30;1.53;;;31.50;34.90;;;;;;10444311;28;20219;-70
2022/07/17 07:56:32;;;;;;;2.93;1.40;;;31.30;35.10;;;;;;10445272;28;20220;-70
2022/07/17 08:01:35;;;;;;;2.97;1.47;;;32.50;33.20;;;;;;10442316;28;20266;-70
2022/07/17 08:06:36;;;;;;;3.87;1.50;;;32.10;33.90;;;;;;10435817;28;20315;-70
2022/07/17 08:11:37;;;;;;;2.97;1.53;;;32.30;33.50;;;;;;10435685;28;20694;-69
2022/07/17 08:16:37;;;;;;;4.27;1.67;;;31.60;34.80;;;;;;10441236;28;20238;-69
2022/07/17 08:21:38;;;;;;;2.87;1.43;;;32.10;33.90;;;;;;10449349;28;20220;-69
2022/07/17 08:26:39;;;;;;;5.63;2.10;;;32.10;33.30;;;;;;10447981;28;20243;-69
2022/07/17 08:31:39;;;;;;;4.70;1.40;;;34.10;31.90;;;;;;10442607;28;20232;-69
2022/07/17 08:36:41;;;;;;;4.60;1.30;;;34.40;30.00;;;;;;10433251;28;20243;-69
2022/07/17 08:41:42;;;;;;;1.67;0.83;;;34.20;30.30;;;;;;10449428;28;20239;-69
2022/07/17 08:46:43;;;;;;;2.97;1.30;;;33.60;30.60;;;;;;10428214;28;20232;-69
2022/07/17 08:51:44;;;;;;;3.40;1.37;;;33.40;30.80;;;;;;10442586;28;20228;-70
2022/07/17 08:56:44;;;;;;;5.60;1.40;;;34.30;29.50;;;;;;10443920;28;20586;-69
2022/07/17 09:01:45;;;;;;;3.87;1.30;;;33.90;30.00;;;;;;10438694;28;20211;-69
2022/07/17 09:06:46;;;;;;;3.40;1.03;;;34.20;29.80;;;;;;10440121;28;20274;-69
2022/07/17 09:11:51;;;;;;;2.60;1.23;;;34.60;29.80;;;;;;10452005;28;20756;-70
2022/07/17 09:16:53;;;;;;;3.33;1.30;;;35.90;28.50;;;;;;10431998;28;20604;-70
2022/07/17 09:22:05;;;;;;;2.30;1.30;;;35.90;27.70;;;;;;10446109;28;20228;-70
2022/07/17 09:27:07;;;;;;;2.50;0.90;;;35.70;28.80;;;;;;10448588;28;20243;-69
2022/07/17 09:32:07;;;;;;;3.80;1.60;;;38.70;27.50;;;;;;10438862;28;20691;-69
2022/07/17 09:37:08;;;;;;;2.80;1.50;;;40.10;25.50;;;;;;10436628;28;20219;-71
2022/07/17 09:42:09;;;;;;;2.53;1.33;;;39.20;25.60;;;;;;10447266;28;20273;-71
2022/07/17 09:47:11;;;;;;;3.00;1.47;;;40.80;25.60;;;;;;10440231;28;20212;-70
2022/07/17 09:52:13;;;;;;;4.53;1.60;;;41.20;25.40;;;;;;10437403;28;20243;-69
2022/07/17 09:57:14;;;;;;;3.03;1.83;;;39.50;24.20;;;;;;10435954;28;20219;-70
2022/07/17 10:02:16;;;;;;;2.43;1.40;;;38.60;25.70;;;;;;10446921;28;20287;-70
2022/07/17 10:07:17;;;;;;;4.50;1.70;;;38.90;25.00;;;;;;10439166;28;20695;-71
2022/07/17 10:12:19;;;;;;;3.10;1.58;;;42.20;23.90;;;;;;10430315;28;20228;-71
2022/07/17 10:17:21;;;;;;;3.85;1.60;;;44.40;22.20;;;;;;10446572;28;20710;-71
2022/07/17 10:22:23;;;;;;;3.33;1.70;;;43.70;22.30;;;;;;10437519;28;20243;-72
2022/07/17 10:27:26;;;;;;;5.32;1.70;;;42.50;23.10;;;;;;10430726;28;20212;-70
2022/07/17 10:32:28;;;;;;;2.95;1.70;;;44.30;21.70;;;;;;10438252;28;20236;-71
2022/07/17 10:37:37;;;;;;;5.47;1.85;;;44.70;21.10;;;;;;10426122;28;20248;-71
2022/07/17 10:42:56;;;;;;;2.40;1.60;;;42.80;21.80;;;;;;10435742;28;20294;-71
2022/07/17 10:48:02;;;;;;;3.20;1.40;;;42.20;22.00;;;;;;10443444;28;20223;-71
2022/07/17 10:53:06;;;;;;;2.87;1.50;;;41.20;23.10;;;;;;10436019;28;20221;-71
2022/07/17 10:58:36;;;;;;;3.57;1.57;;;41.40;22.60;;;;;;10444811;28;20223;-72
2022/07/17 11:03:50;;;;;;;1.77;1.30;;;42.40;22.10;;;;;;10442639;28;20274;-70
2022/07/17 11:08:53;;;;;;;2.57;1.57;;;41.40;22.30;;;;;;10433979;28;20758;-73
2022/07/17 11:13:54;;;;;;;2.90;1.60;;;41.60;22.20;;;;;;10435588;28;20311;-71
2022/07/17 11:18:55;;;;;;;4.27;1.70;;;43.80;20.90;;;;;;10434482;28;20224;-71
2022/07/17 11:23:57;;;;;;;4.83;1.50;;;41.30;21.90;;;;;;10434110;28;20212;-71
2022/07/17 11:28:58;;;;;;;1.73;1.30;;;40.10;22.60;;;;;;10432921;28;20600;-71
2022/07/17 11:34:00;;;;;;;2.23;1.60;;;40.50;22.20;;;;;;10434414;28;20220;-72
2022/07/17 11:39:12;;;;;;;2.80;1.70;;;43.10;21.10;;;;;;10427340;28;20225;-71
2022/07/17 11:44:15;;;;;;;1.57;1.17;;;44.40;20.80;;;;;;10441372;28;20220;-71
2022/07/17 11:49:33;;;;;;;2.20;1.33;;;41.00;21.50;;;;;;10437966;28;20731;-71
2022/07/17 11:54:56;;;;;;;2.60;1.27;;;37.10;23.60;;;;;;10441655;28;20262;-72
2022/07/17 12:00:08;;;;;;;3.77;1.33;;;34.90;25.30;;;;;;10425451;28;20223;-72
2022/07/17 12:05:09;;;;;;;5.60;1.67;;;33.60;26.60;;;;;;10435571;28;20216;-71
2022/07/17 12:10:32;;;;;;;8.07;1.27;;;32.20;28.50;;;;;;10433789;28;20224;-71
2022/07/17 12:15:41;;;;;;;2.47;1.30;;;31.50;28.80;;;;;;10443371;28;20235;-71
2022/07/17 12:20:44;;;;;;;2.10;1.10;;;31.00;29.00;;;;;;10439975;28;20311;-71
2022/07/17 12:25:48;;;;;;;1.67;1.17;;;30.80;28.30;;;;;;10436333;28;20235;-73
2022/07/17 12:30:48;;;;;;;2.50;1.33;;;30.40;27.30;;;;;;10440537;28;20223;-72
2022/07/17 12:35:49;;;;;;;1.60;1.00;;;30.00;28.00;;;;;;10448581;28;20275;-71
2022/07/17 12:40:49;;;;;;;2.63;1.47;;;29.40;27.90;;;;;;10449527;28;20718;-72
2022/07/17 12:45:50;;;;;;;2.10;1.10;;;29.40;28.50;;;;;;10439885;28;20274;-72
2022/07/17 12:50:51;;;;;;;2.50;0.87;;;29.50;29.00;;;;;;10441562;28;20227;-73
2022/07/17 12:55:52;;;;;;;2.10;1.10;;;29.50;29.10;;;;;;10444638;28;20226;-71
2022/07/17 13:00:52;;;;;;;2.67;1.20;;;29.60;28.70;;;;;;10434619;28;20284;-73
2022/07/17 13:05:53;;;;;;;1.57;1.17;;;29.60;28.60;;;;;;10442978;28;20268;-72
2022/07/17 13:10:54;;;;;;;2.83;1.10;;;29.50;29.30;;;;;;10441101;28;20227;-71
2022/07/17 13:15:55;;;;;;;2.50;1.50;;;29.80;28.40;;;;;;10443366;28;20702;-71
2022/07/17 13:20:59;;;;;;;1.70;1.17;;;29.30;29.40;;;;;;10438378;28;20457;-72
2022/07/17 13:26:01;;;;;;;2.00;1.47;;;29.00;28.50;;;;;;10432445;28;20303;-70
2022/07/17 13:31:01;;;;;;;2.53;1.10;;;29.10;27.60;;;;;;10437332;28;20216;-70
2022/07/17 13:36:02;;;;;;;2.77;1.00;;;29.10;27.20;;;;;;10446753;28;20211;-71
2022/07/17 13:41:05;;;;;;;2.73;1.30;;;29.20;27.30;;;;;;10432608;28;20247;-71
2022/07/17 13:46:06;;;;;;;2.90;1.00;;;29.20;26.40;;;;;;10432539;28;20311;-71
2022/07/17 13:51:07;;;;;;;2.97;0.97;;;29.30;26.50;;;;;;10431468;28;20304;-71
2022/07/17 13:56:07;;;;;;;2.00;1.30;;;29.20;26.20;;;;;;10439028;28;20306;-71
2022/07/17 14:01:08;;;;;;;1.60;1.20;;;29.30;26.30;;;;;;10440998;28;20541;-70
2022/07/17 14:06:09;;;;;;;0.90;0.90;;;29.30;25.70;;;;;;10440335;28;20704;-71
2022/07/17 14:11:11;;;;;;;2.63;1.70;;;29.40;24.30;;;;;;10440619;28;20326;-70
2022/07/17 14:16:11;;;;;;;1.37;1.13;;;29.50;22.90;;;;;;10444195;28;20314;-71
2022/07/17 14:21:12;;;;;;;1.80;1.13;;;29.50;24.70;;;;;;10430105;28;20630;-71
2022/07/17 14:26:12;;;;;;;3.20;1.07;;;29.40;24.90;;;;;;10436585;28;20222;-71
2022/07/17 14:31:13;;;;;;;2.10;1.20;;;29.50;24.80;;;;;;10429664;28;20220;-70
2022/07/17 14:36:14;;;;;;;1.37;1.00;;;29.40;24.90;;;;;;10427819;28;20235;-70
2022/07/17 14:41:14;;;;;;;1.33;0.90;;;29.40;24.30;;;;;;10434605;28;20620;-71
2022/07/17 14:46:15;;;;;;;1.93;0.97;;;29.40;24.80;;;;;;10430335;28;20220;-71
2022/07/17 14:51:16;;;;;;;1.90;1.70;;;29.50;24.90;;;;;;10446474;28;20640;-71
2022/07/17 14:56:16;;;;;;;1.87;1.10;;;29.50;24.60;;;;;;10438328;28;20302;-70
2022/07/17 15:01:17;;;;;;;3.80;1.37;;;29.50;24.10;;;;;;10435795;28;20209;-71
2022/07/17 15:06:17;;;;;;;2.00;1.17;;;29.30;24.50;;;;;;10437239;28;20701;-71
2022/07/17 15:11:18;;;;;;;2.10;1.10;;;29.40;24.50;;;;;;10446315;28;20639;-71
2022/07/17 15:16:18;;;;;;;1.30;1.00;;;29.40;24.00;;;;;;10437078;28;20224;-71
2022/07/17 15:21:19;;;;;;;1.73;1.33;;;29.30;24.20;;;;;;10437410;28;20307;-71
2022/07/17 15:26:23;;;;;;;2.57;1.00;;;29.30;24.60;;;;;;10435820;28;20220;-71
2022/07/17 15:31:23;;;;;;;1.20;0.90;;;29.30;25.40;;;;;;10430341;28;20262;-72
2022/07/17 15:36:27;;;;;;;1.37;0.93;;;29.20;25.20;;;;;;10437648;28;20231;-70
2022/07/17 15:41:27;;;;;;;1.77;0.90;;;29.20;24.80;;;;;;10435801;28;20765;-72
2022/07/17 15:46:28;;;;;;;1.50;1.03;;;29.00;24.70;;;;;;10445379;28;20319;-70
2022/07/17 15:51:29;;;;;;;2.50;1.20;;;29.10;25.20;;;;;;10452284;28;20910;-70
2022/07/17 15:56:30;;;;;;;1.93;0.83;;;29.10;25.10;;;;;;10459332;28;20600;-70
2022/07/17 16:01:31;;;;;;;1.63;0.90;;;29.00;24.60;;;;;;10438018;28;20224;-70
2022/07/17 16:06:32;;;;;;;2.77;0.93;;;29.00;26.30;;;;;;10444932;28;20226;-71
2022/07/17 16:11:32;;;;;;;2.80;1.03;;;28.90;25.70;;;;;;10447808;28;20712;-71
2022/07/17 16:16:33;;;;;;;2.63;0.80;;;28.80;25.70;;;;;;10440429;28;20788;-71
2022/07/17 16:21:34;;;;;;;2.67;1.20;;;28.60;25.50;;;;;;10442821;28;20215;-71
2022/07/17 16:26:35;;;;;;;1.97;1.00;;;28.40;25.80;;;;;;10448092;28;20216;-71
2022/07/17 16:31:36;;;;;;;8.27;4.80;;;28.40;27.40;;;;;;10430302;28;20236;-69
2022/07/17 16:36:37;;;;;;;3.77;1.93;;;28.40;27.80;;;;;;10434576;28;20318;-70
2022/07/17 16:41:37;;;;;;;3.57;1.50;;;28.30;27.60;;;;;;10439913;28;20220;-71
2022/07/17 16:46:38;;;;;;;1.60;1.00;;;28.30;27.00;;;;;;10444788;28;20232;-72
2022/07/17 16:51:38;;;;;;;3.30;1.03;;;28.10;27.10;;;;;;10438553;28;20230;-70
2022/07/17 16:56:39;;;;;;;1.77;1.00;;;28.00;28.10;;;;;;10437912;28;20256;-70
2022/07/17 17:01:40;;;;;;;4.73;1.10;;;28.00;28.80;;;;;;10437065;28;20220;-71
2022/07/17 17:06:40;;;;;;;3.70;1.17;;;27.80;28.80;;;;;;10441472;28;20225;-70
2022/07/17 17:11:44;;;;;;;3.43;1.60;;;27.80;29.00;;;;;;10440459;28;20243;-69
2022/07/17 17:16:45;;;;;;;3.40;1.13;;;27.70;29.30;;;;;;10434219;28;20228;-70
2022/07/17 17:21:45;;;;;;;2.03;1.10;;;27.60;29.80;;;;;;10447211;28;20215;-70
2022/07/17 17:26:46;;;;;;;4.03;1.30;;;27.60;29.70;;;;;;10445335;28;20315;-70
2022/07/17 17:31:46;;;;;;;2.10;1.10;;;27.50;29.20;;;;;;10424112;28;20244;-70
2022/07/17 17:36:47;;;;;;;2.73;1.20;;;27.40;29.30;;;;;;10437462;28;20227;-71
2022/07/17 17:41:48;;;;;;;6.17;1.10;;;27.30;30.00;;;;;;10433722;28;20218;-71
2022/07/17 17:46:52;;;;;;;2.37;1.37;;;27.20;30.60;;;;;;10438074;28;20231;-71
2022/07/17 17:51:53;;;;;;;2.70;1.00;;;27.20;30.90;;;;;;10429381;28;20749;-69
2022/07/17 17:56:54;;;;;;;3.40;1.27;;;27.10;30.60;;;;;;10430492;28;20228;-72
2022/07/17 18:01:56;;;;;;;2.53;1.17;;;27.00;30.20;;;;;;10446070;28;20226;-70
2022/07/17 18:06:58;;;;;;;1.13;0.90;;;26.90;30.20;;;;;;10437691;28;20224;-70
2022/07/17 18:11:58;;;;;;;2.30;1.03;;;26.80;30.60;;;;;;10430567;28;20687;-70
2022/07/17 18:16:59;;;;;;;2.43;1.07;;;26.80;30.70;;;;;;10444960;28;20252;-70
2022/07/17 18:22:00;;;;;;;1.93;1.00;;;26.70;31.10;;;;;;10436121;28;20226;-69
2022/07/17 18:27:00;;;;;;;1.33;1.07;;;26.60;31.50;;;;;;10434797;28;20233;-69
2022/07/17 18:32:02;;;;;;;2.70;1.03;;;26.60;31.60;;;;;;10428521;28;20237;-69
2022/07/17 18:37:03;;;;;;;4.17;1.80;;;26.50;31.70;;;;;;10429229;28;21663;-70
2022/07/17 18:42:05;;;;;;;3.20;1.20;;;26.40;32.20;;;;;;10434549;28;20224;-71
2022/07/17 18:47:06;;;;;;;2.30;1.40;;;26.20;32.90;;;;;;10435097;28;20310;-69
2022/07/17 18:52:06;;;;;;;4.97;1.70;;;26.00;33.30;;;;;;10435088;28;20230;-71
2022/07/17 18:57:08;;;;;;;4.37;1.50;;;25.90;33.30;;;;;;10443685;28;20242;-72
2022/07/17 19:02:09;;;;;;;2.33;1.40;;;25.90;33.70;;;;;;10428279;28;20224;-71
2022/07/17 19:07:09;;;;;;;7.20;1.70;;;25.60;34.00;;;;;;10445626;28;20235;-70
2022/07/17 19:12:11;;;;;;;3.20;1.30;;;25.40;34.90;;;;;;10431658;28;20718;-70
2022/07/17 19:17:13;;;;;;;4.07;1.80;;;25.20;35.40;;;;;;10447432;28;20287;-70
2022/07/17 19:22:13;;;;;;;7.30;2.10;;;24.90;35.90;;;;;;10438308;28;20224;-70
2022/07/17 19:27:14;;;;;;;5.27;1.90;;;24.60;36.60;;;;;;10437785;28;20219;-70
2022/07/17 19:32:15;;;;;;;2.70;1.80;;;24.40;37.40;;;;;;10438226;28;20228;-70
2022/07/17 19:37:15;;;;;;;2.83;1.87;;;24.20;37.90;;;;;;10441963;28;20219;-69
2022/07/17 19:42:17;;;;;;;2.83;1.90;;;23.90;38.90;;;;;;10452380;28;20690;-69
2022/07/17 19:47:19;;;;;;;3.60;2.03;;;23.70;40.00;;;;;;10444297;28;20223;-69
2022/07/17 19:52:19;;;;;;;6.47;2.37;;;23.50;40.70;;;;;;10443641;28;20225;-70
2022/07/17 19:57:20;;;;;;;4.57;2.00;;;23.30;41.20;;;;;;10434668;28;20321;-70
2022/07/17 20:02:21;;;;;;;4.63;2.43;;;23.20;42.10;;;;;;10448851;28;20369;-71
2022/07/17 20:07:21;;;;;;;2.80;1.90;;;23.00;42.90;;;;;;10449571;28;20603;-70
2022/07/17 20:12:22;;;;;;;2.40;1.87;;;22.90;43.40;;;;;;10441498;28;20249;-70
2022/07/17 20:17:22;;;;;;;2.37;1.90;;;22.80;43.60;;;;;;10450335;28;20227;-70
2022/07/17 20:22:23;;;;;;;2.30;1.73;;;22.80;44.40;;;;;;10436476;28;20219;-69
2022/07/17 20:27:24;;;;;;;2.53;1.90;;;22.60;44.00;;;;;;10435836;28;20223;-68
2022/07/17 20:32:24;;;;;;;3.07;2.20;;;22.60;44.90;;;;;;10440304;28;20228;-70
2022/07/17 20:37:25;;;;;;;4.50;2.50;;;22.50;44.60;;;;;;10441040;28;20719;-70
2022/07/17 20:42:26;;;;;;;3.00;2.00;;;22.40;44.60;;;;;;10441591;28;20679;-70
2022/07/17 20:47:29;;;;;;;3.80;2.50;;;22.40;44.80;;;;;;10448840;28;20752;-73
2022/07/17 20:52:30;;;;;;;3.80;2.60;;;22.40;44.20;;;;;;10460341;28;20753;-70
2022/07/17 20:57:30;;;;;;;4.60;2.03;;;22.30;45.40;;;;;;10433511;28;20227;-69
2022/07/17 21:02:31;;;;;;;3.07;1.77;;;22.20;44.10;;;;;;10441287;28;20310;-72
2022/07/17 21:07:34;;;;;;;3.10;1.60;;;22.30;43.70;;;;;;10450833;28;20366;-72
2022/07/17 21:12:35;;;;;;;2.77;1.70;;;22.40;43.50;;;;;;10442395;28;20224;-70
2022/07/17 21:17:36;;;;;;;2.90;1.90;;;22.40;43.50;;;;;;10441605;28;20224;-70
2022/07/17 21:22:38;;;;;;;6.87;2.00;;;22.30;45.50;;;;;;10444949;28;20215;-70
2022/07/17 21:27:41;;;;;;;4.80;1.90;;;22.20;44.70;;;;;;10433091;28;20289;-70
2022/07/17 21:32:42;;;;;;;5.07;2.27;;;22.10;44.50;;;;;;10446773;28;20711;-70
2022/07/17 21:37:45;;;;;;;6.03;2.00;;;22.00;47.10;;;;;;10416214;28;20229;-69
2022/07/17 21:42:46;;;;;;;4.23;2.40;;;21.80;48.30;;;;;;10420656;28;20209;-70
2022/07/17 21:47:46;;;;;;;4.37;2.60;;;21.60;48.90;;;;;;10433833;28;20327;-70
2022/07/17 21:52:47;;;;;;;3.30;2.47;;;21.50;49.40;;;;;;10444945;28;20678;-69
2022/07/17 21:57:48;;;;;;;6.17;2.80;;;21.30;50.20;;;;;;10441695;28;20219;-69
2022/07/17 22:02:50;;;;;;;3.27;2.70;;;21.20;50.60;;;;;;10440484;28;20690;-69
2022/07/17 22:07:50;;;;;;;3.03;2.07;;;21.10;50.00;;;;;;10448161;28;20759;-69
2022/07/17 22:12:51;;;;;;;2.53;1.80;;;20.90;48.80;;;;;;10438466;28;20232;-70
2022/07/17 22:17:55;;;;;;;2.47;1.77;;;20.90;47.70;;;;;;10429632;28;20239;-71
2022/07/17 22:22:56;;;;;;;5.40;1.60;;;20.90;47.20;;;;;;10441802;28;20230;-70
2022/07/17 22:27:57;;;;;;;3.53;1.70;;;21.00;46.60;;;;;;10430523;28;20224;-70
2022/07/17 22:32:58;;;;;;;2.73;1.73;;;21.10;46.20;;;;;;10430820;28;20265;-69
2022/07/17 22:37:58;;;;;;;3.03;2.10;;;21.10;46.70;;;;;;10422673;28;20231;-69
2022/07/17 22:42:59;;;;;;;4.67;2.17;;;21.00;47.00;;;;;;10440571;28;20208;-69
2022/07/17 22:48:00;;;;;;;5.90;3.10;;;21.00;47.00;;;;;;10437427;28;20223;-70
2022/07/17 22:53:01;;;;;;;3.40;2.33;;;21.00;48.10;;;;;;10437547;28;20223;-72
2022/07/17 22:58:01;;;;;;;4.23;1.67;;;21.00;47.80;;;;;;10438438;28;20228;-69
2022/07/17 23:03:02;;;;;;;2.33;1.90;;;20.90;47.90;;;;;;10434751;28;20770;-70
2022/07/17 23:08:03;;;;;;;2.33;1.67;;;20.80;48.30;;;;;;10428853;28;20222;-72
2022/07/17 23:13:04;;;;;;;2.87;1.93;;;20.70;48.80;;;;;;10432793;28;20208;-69
2022/07/17 23:18:05;;;;;;;3.40;1.90;;;20.60;50.20;;;;;;10445517;28;20278;-70
2022/07/17 23:23:05;;;;;;;2.23;1.50;;;20.40;51.20;;;;;;10440985;28;20251;-69
2022/07/17 23:28:06;;;;;;;2.90;1.60;;;20.20;51.90;;;;;;10430871;28;20294;-69
2022/07/17 23:33:07;;;;;;;1.90;1.53;;;20.10;52.30;;;;;;10430468;28;20220;-69
2022/07/17 23:38:08;;;;;;;2.33;1.40;;;20.00;52.50;;;;;;10436022;28;20765;-72
2022/07/17 23:43:09;;;;;;;4.53;1.50;;;19.90;52.10;;;;;;10431645;28;20319;-69
2022/07/17 23:48:10;;;;;;;2.57;1.70;;;19.80;52.20;;;;;;10437924;28;20227;-69
2022/07/17 23:53:10;;;;;;;2.70;1.70;;;19.80;53.00;;;;;;10446075;28;20239;-68
2022/07/17 23:58:13;;;;;;;2.63;1.43;;;19.70;54.00;;;;;;10435072;28;20235;-68
